Sterling, VA (20163)

4:12 PM EDT on June 02, 2015 (GMT -0400)
Four Seasons | | Change Station
CLOSE
Current Station
Personal Weather Station
Location: Herndon, VA
Elevation: 407 ft
Nearby Weather Stations

Elev 407 ft 38.97 °N, 77.41 °W | Updated 13 minutes ago

Overcast
Overcast
60.4 °F
Feels Like 60.4 °F
N
0.0
Wind Variable Wind from South

Today
High -- | Low -- °F
--% Chance of Precip.
Yesterday
High -- | Low -- °F
Precip. -- in
5:45 AM 8:30 PM
Full, 100% visible
Pressure 30.08 in
Visibility 10.0 miles
Clouds Few 900 ft
Mostly Cloudy 1300 ft
Overcast 2200 ft
Dew Point 55 °F
Humidity 82%
Rainfall 0.25 in
Snow Depth Not available.
UV 2 out of 12
Pollen .40 out of 12
Air Quality Not available.
Flu Activity Sporadic
METAR KIAD 021952Z 02010KT 10SM FEW009 BKN013 OVC022 16/13 A3008 RMK AO2 SLP185 T01560128

More Conditions Fewer Conditions

Pressure 30.08 in
Visibility 10.0 miles
Clouds Few 900 ft
Mostly Cloudy 1300 ft
Overcast 2200 ft
Dew Point 55 °F
Humidity 82%
Rainfall 0.25 in
Snow Depth Not available.
UV 2 out of 12
Pollen .40 out of 12
Air Quality Not available.
Flu Activity Sporadic
METAR KIAD 021952Z 02010KT 10SM FEW009 BKN013 OVC022 16/13 A3008 RMK AO2 SLP185 T01560128

More Conditions Fewer Conditions

10-Day Weather Forecast

Almanac

Astronomy

Jun. 02, 2015 Rise Set
Actual Time
Civil Twilight
Nautical Twilight
Astronomical Twilight
Moon
Length of Visible Light
Length of Day
Tomorrow will be .
, % of the Moon is Illuminated

Today's Extremes

State Highs State Lows

Community

WunderPhotos

Upload Photos

1,826,021 photos uploaded!

WunderBlogs® & News

Nearby

Air Quality

  Air Quality AQ Index Pollutant
Not available.

Snow Depth

Station Depth Elevation

Earthquake Activity

City Distance Mag. Time & Date
Minimum magnitude displayed is 2.5.

Coastal Water Temperatures

Place Temperature

Stations

Nearby Weather Stations

Station Location Temp. Windchill Dew Point Humidity Wind Precip. Elev Updated Type